createdAt,value
2022-11-01T00:04:14.654Z,12.59
2022-11-01T00:09:17.587Z,12.50
2022-11-01T00:14:20.672Z,12.50
2022-11-01T00:19:23.225Z,12.57
2022-11-01T00:24:30.932Z,12.65
2022-11-01T00:29:35.651Z,12.66
2022-11-01T00:34:38.110Z,12.67
2022-11-01T00:39:40.752Z,12.66
2022-11-01T00:44:43.246Z,12.68
2022-11-01T00:49:45.891Z,12.74
2022-11-01T00:54:48.371Z,12.74
2022-11-01T00:59:50.902Z,12.74
2022-11-01T01:04:54.683Z,12.76
2022-11-01T01:09:57.381Z,12.78
2022-11-01T01:15:00.178Z,12.83
2022-11-01T01:20:03.432Z,12.79
2022-11-01T01:25:06.147Z,12.79
2022-11-01T01:30:09.519Z,12.81
2022-11-01T01:35:12.051Z,12.82
2022-11-01T01:40:14.751Z,12.84
2022-11-01T01:45:23.180Z,12.87
2022-11-01T01:50:30.871Z,12.83
2022-11-01T01:55:37.810Z,12.76
2022-11-01T02:00:43.513Z,12.79
2022-11-01T02:05:49.484Z,12.80
2022-11-01T02:10:54.993Z,12.78
2022-11-01T02:15:59.450Z,12.76
2022-11-01T02:21:17.278Z,12.80
2022-11-01T02:26:30.982Z,12.82
2022-11-01T02:31:45.910Z,12.83
2022-11-01T02:36:56.068Z,12.82
2022-11-01T02:42:09.733Z,12.80
2022-11-01T02:47:14.035Z,12.79
2022-11-01T02:52:25.954Z,12.80
2022-11-01T02:57:34.572Z,12.78
2022-11-01T03:02:44.154Z,12.77
2022-11-01T03:07:52.891Z,12.76
2022-11-01T03:13:06.403Z,12.78
2022-11-01T03:18:18.161Z,12.77
2022-11-01T03:23:27.628Z,12.73
2022-11-01T03:28:36.740Z,12.65
2022-11-01T03:33:45.437Z,12.65
2022-11-01T03:39:13.421Z,12.63
2022-11-01T03:44:16.537Z,12.58
2022-11-01T03:49:19.983Z,12.55
2022-11-01T03:54:22.903Z,12.55
2022-11-01T03:59:25.547Z,12.57
2022-11-01T04:04:28.068Z,12.58
2022-11-01T04:09:30.707Z,12.58
2022-11-01T04:14:36.115Z,12.60
2022-11-01T04:19:41.622Z,12.62
2022-11-01T04:24:44.382Z,12.61
2022-11-01T04:29:46.887Z,12.51
2022-11-01T04:34:49.421Z,12.43
2022-11-01T04:39:52.103Z,12.38
2022-11-01T04:44:54.727Z,12.34
2022-11-01T04:49:57.318Z,12.32
2022-11-01T04:55:02.272Z,12.30
2022-11-01T05:00:05.647Z,12.25
2022-11-01T05:05:12.575Z,12.15
2022-11-01T05:10:15.069Z,12.05
2022-11-01T05:15:17.607Z,12.04
2022-11-01T05:20:20.320Z,12.08
2022-11-01T05:25:22.862Z,12.08
2022-11-01T05:30:25.570Z,12.03
2022-11-01T05:35:30.086Z,12.06
2022-11-01T05:40:33.331Z,12.13
2022-11-01T05:45:35.872Z,12.23
2022-11-01T05:50:38.356Z,12.28
2022-11-01T05:55:41.269Z,12.28
2022-11-01T06:00:43.762Z,12.24
2022-11-01T06:05:46.267Z,12.20
2022-11-01T06:10:49.012Z,12.17
2022-11-01T06:15:58.475Z,12.19
2022-11-01T06:21:01.106Z,12.22
2022-11-01T06:26:05.009Z,12.27
2022-11-01T06:31:07.538Z,12.30
2022-11-01T06:36:10.179Z,12.31
2022-11-01T06:41:12.647Z,12.38
2022-11-01T06:46:15.322Z,12.48
2022-11-01T06:51:17.903Z,12.61
2022-11-01T06:56:20.603Z,12.69
2022-11-01T07:01:25.026Z,12.76
2022-11-01T07:06:30.785Z,12.79
2022-11-01T07:11:33.907Z,12.81
2022-11-01T07:16:36.815Z,12.82
2022-11-01T07:21:39.317Z,12.89
2022-11-01T07:26:41.949Z,12.99
2022-11-01T07:31:44.478Z,13.05
2022-11-01T07:36:47.000Z,13.05
2022-11-01T07:41:51.227Z,13.07
2022-11-01T07:46:53.784Z,13.12
2022-11-01T07:52:00.314Z,13.15
2022-11-01T07:57:05.649Z,13.18
2022-11-01T08:02:09.218Z,13.16
2022-11-01T08:07:11.844Z,13.17
2022-11-01T08:12:14.392Z,13.18
2022-11-01T08:17:16.908Z,13.23
2022-11-01T08:22:19.460Z,13.27
2022-11-01T08:27:21.975Z,13.34
2022-11-01T08:32:24.713Z,13.46
2022-11-01T08:37:27.427Z,13.57
2022-11-01T08:42:30.079Z,13.67
2022-11-01T08:47:32.620Z,13.78
2022-11-01T08:52:35.142Z,13.80
2022-11-01T08:57:37.809Z,13.76
2022-11-01T09:02:40.364Z,13.69
2022-11-01T09:07:42.854Z,13.68
2022-11-01T09:12:45.513Z,13.50
2022-11-01T09:17:48.128Z,13.19
2022-11-01T09:22:52.263Z,13.10
2022-11-01T09:27:56.810Z,13.04
2022-11-01T09:32:59.435Z,12.92
2022-11-01T09:38:04.017Z,12.88
2022-11-01T09:43:09.718Z,12.88
2022-11-01T09:48:15.234Z,12.98
2022-11-01T09:53:22.109Z,13.05
2022-11-01T09:59:50.645Z,13.09
2022-11-01T10:05:00.738Z,13.17
2022-11-01T10:10:14.340Z,13.14
2022-11-01T10:15:18.815Z,13.08
2022-11-01T10:20:26.466Z,13.09
2022-11-01T10:25:33.130Z,13.35
2022-11-01T10:30:43.069Z,13.77
2022-11-01T10:35:52.442Z,14.14
2022-11-01T10:41:04.254Z,14.58
2022-11-01T10:46:13.153Z,15.08
2022-11-01T10:51:26.716Z,15.28
2022-11-01T10:56:41.559Z,15.18
2022-11-01T11:01:47.756Z,15.24
2022-11-01T11:06:51.793Z,15.20
2022-11-01T11:11:59.992Z,15.10
2022-11-01T11:17:04.257Z,14.99
2022-11-01T11:22:08.865Z,14.90
2022-11-01T11:34:35.976Z,14.64
2022-11-01T11:39:39.434Z,14.55
2022-11-01T11:44:45.001Z,14.47
2022-11-01T11:49:50.020Z,14.45
2022-11-01T11:54:55.089Z,14.35
2022-11-01T12:00:01.134Z,14.48
2022-11-01T12:05:08.425Z,14.43
2022-11-01T12:10:30.706Z,14.31
2022-11-01T12:15:41.143Z,14.32
2022-11-01T12:20:53.200Z,14.35
2022-11-01T12:25:59.652Z,14.31
2022-11-01T12:31:11.713Z,14.25
2022-11-01T12:36:15.352Z,14.22
2022-11-01T12:41:24.202Z,14.18
2022-11-01T12:46:32.668Z,14.10
2022-11-01T12:51:40.506Z,14.08
2022-11-01T12:56:43.086Z,14.08
2022-11-01T13:08:46.237Z,14.32
2022-11-01T13:14:06.699Z,14.21
2022-11-01T13:19:13.765Z,14.10
2022-11-01T13:24:27.020Z,14.04
2022-11-01T13:29:39.548Z,13.97
2022-11-01T13:34:55.370Z,13.91
2022-11-01T13:40:00.707Z,13.87
2022-11-01T13:45:18.462Z,13.86
2022-11-01T13:50:35.487Z,13.87
2022-11-01T13:55:47.393Z,13.96
2022-11-01T14:00:54.230Z,14.09
2022-11-01T14:06:20.094Z,14.17
2022-11-01T14:11:28.617Z,14.15
2022-11-01T14:16:31.237Z,14.23
2022-11-01T14:21:39.608Z,14.32
2022-11-01T14:26:48.221Z,14.33
2022-11-01T14:31:52.653Z,14.28
2022-11-01T14:36:59.241Z,14.22
2022-11-01T14:42:05.292Z,14.13
2022-11-01T14:47:25.808Z,14.01
2022-11-01T14:52:35.783Z,13.83
2022-11-01T14:57:38.432Z,13.72
2022-11-01T15:02:41.423Z,13.68
2022-11-01T15:07:50.952Z,13.63
2022-11-01T15:12:58.391Z,13.58
2022-11-01T15:18:06.590Z,13.49
2022-11-01T15:23:28.316Z,13.41
2022-11-01T15:28:37.072Z,13.36
2022-11-01T15:34:05.194Z,13.30
2022-11-01T15:39:13.559Z,13.26
2022-11-01T15:44:20.482Z,13.25
2022-11-01T15:49:29.375Z,13.24
2022-11-01T16:01:39.493Z,13.26
2022-11-01T16:06:50.096Z,13.23
2022-11-01T16:11:57.069Z,13.21
2022-11-01T16:17:03.781Z,13.17
2022-11-01T16:22:30.092Z,13.13
2022-11-01T16:27:35.787Z,13.10
2022-11-01T16:32:38.707Z,13.08
2022-11-01T16:37:43.791Z,13.09
2022-11-01T16:42:48.545Z,13.05
2022-11-01T16:47:57.100Z,13.01
2022-11-01T16:53:00.805Z,13.00
2022-11-01T16:58:03.555Z,13.00
2022-11-01T17:03:06.432Z,13.03
2022-11-01T17:08:11.950Z,13.04
2022-11-01T17:20:26.399Z,12.94
2022-11-01T17:25:30.593Z,12.93
2022-11-01T17:30:33.084Z,12.88
2022-11-01T17:35:38.443Z,12.84
2022-11-01T17:40:45.246Z,12.84
2022-11-01T17:45:49.270Z,12.84
2022-11-01T17:50:52.178Z,12.85
2022-11-01T17:55:58.013Z,12.91
2022-11-01T18:01:00.631Z,12.93
2022-11-01T18:06:03.439Z,12.88
2022-11-01T18:11:09.211Z,12.85
2022-11-01T18:16:14.582Z,12.79
2022-11-01T18:21:24.916Z,12.68
2022-11-01T18:26:29.796Z,12.61
2022-11-01T18:31:38.635Z,12.55
2022-11-01T18:36:47.705Z,12.47
2022-11-01T18:41:50.826Z,12.38
2022-11-01T18:47:18.831Z,12.32
2022-11-01T18:52:24.576Z,12.30
2022-11-01T18:57:28.794Z,12.31
2022-11-01T19:02:32.857Z,12.30
2022-11-01T19:08:04.808Z,12.34
2022-11-01T19:12:58.006Z,12.39
2022-11-01T19:18:03.471Z,12.40
2022-11-01T19:23:09.166Z,12.38
2022-11-01T19:28:26.064Z,12.37
2022-11-01T19:33:31.843Z,12.38
2022-11-01T19:38:34.852Z,12.42
2022-11-01T19:43:37.378Z,12.46
2022-11-01T19:48:40.034Z,12.46
2022-11-01T19:53:42.799Z,12.45
2022-11-01T19:58:52.544Z,12.45
2022-11-01T20:03:59.925Z,12.47
2022-11-01T20:09:05.456Z,12.52
2022-11-01T20:14:07.972Z,12.57
2022-11-01T20:19:13.221Z,12.62
2022-11-01T20:24:19.007Z,12.64
2022-11-01T20:29:21.740Z,12.62
2022-11-01T20:34:25.588Z,12.63
2022-11-01T20:39:28.102Z,12.68
2022-11-01T20:44:30.733Z,12.74
2022-11-01T20:49:33.345Z,12.77
2022-11-01T20:54:35.880Z,12.84
2022-11-01T20:59:38.359Z,12.87
2022-11-01T21:04:40.916Z,12.91
2022-11-01T21:09:46.314Z,12.91
2022-11-01T21:14:49.180Z,12.90
2022-11-01T21:19:54.513Z,12.89
2022-11-01T21:24:58.355Z,12.87
2022-11-01T21:30:15.056Z,12.87
2022-11-01T21:35:19.504Z,12.90
2022-11-01T21:40:27.716Z,12.95
2022-11-01T21:45:32.176Z,12.97
2022-11-01T21:50:34.671Z,13.02
2022-11-01T21:55:37.174Z,13.04
2022-11-01T22:00:39.703Z,13.01
2022-11-01T22:05:42.242Z,13.01
2022-11-01T22:10:44.769Z,12.97
2022-11-01T22:15:47.260Z,12.97
2022-11-01T22:20:49.721Z,12.99
2022-11-01T22:25:52.260Z,13.00
2022-11-01T22:30:55.075Z,12.94
2022-11-01T22:35:59.034Z,12.86
2022-11-01T22:41:11.533Z,12.84
2022-11-01T22:46:21.697Z,12.88
2022-11-01T22:51:35.734Z,12.93
2022-11-01T22:56:38.236Z,12.97
2022-11-01T23:01:40.929Z,12.98
2022-11-01T23:06:43.469Z,12.92
2022-11-01T23:11:57.560Z,12.88
2022-11-01T23:17:00.071Z,12.82
2022-11-01T23:22:02.568Z,12.77
2022-11-01T23:27:05.171Z,12.75
2022-11-01T23:32:07.927Z,12.73
2022-11-01T23:37:16.419Z,12.73
2022-11-01T23:42:21.553Z,12.76
2022-11-01T23:47:27.960Z,12.78
2022-11-01T23:52:35.421Z,12.77
2022-11-01T23:57:40.317Z,12.77
